sensor_id;sensor_type;location;lat;lon;timestamp;P1;durP1;ratioP1;P2;durP2;ratioP2
14994;SDS011;7593;49.006;8.372;2022-07-18T00:01:45;5.07;;;1.80;;
14994;SDS011;7593;49.006;8.372;2022-07-18T00:04:12;5.25;;;2.00;;
14994;SDS011;7593;49.006;8.372;2022-07-18T00:06:39;3.65;;;2.10;;
14994;SDS011;7593;49.006;8.372;2022-07-18T00:09:05;3.75;;;1.95;;
14994;SDS011;7593;49.006;8.372;2022-07-18T00:11:32;4.45;;;1.95;;
14994;SDS011;7593;49.006;8.372;2022-07-18T00:13:59;5.05;;;1.98;;
14994;SDS011;7593;49.006;8.372;2022-07-18T00:16:26;3.85;;;2.38;;
14994;SDS011;7593;49.006;8.372;2022-07-18T00:18:55;3.95;;;1.90;;
14994;SDS011;7593;49.006;8.372;2022-07-18T00:21:23;2.35;;;2.03;;
14994;SDS011;7593;49.006;8.372;2022-07-18T00:23:50;2.30;;;1.90;;
14994;SDS011;7593;49.006;8.372;2022-07-18T00:26:17;3.95;;;1.98;;
14994;SDS011;7593;49.006;8.372;2022-07-18T00:28:44;4.30;;;1.85;;
14994;SDS011;7593;49.006;8.372;2022-07-18T00:31:10;3.53;;;2.13;;
14994;SDS011;7593;49.006;8.372;2022-07-18T00:33:37;5.57;;;2.30;;
14994;SDS011;7593;49.006;8.372;2022-07-18T00:36:06;3.28;;;1.98;;
14994;SDS011;7593;49.006;8.372;2022-07-18T00:38:32;5.28;;;2.20;;
14994;SDS011;7593;49.006;8.372;2022-07-18T00:40:59;2.22;;;1.90;;
14994;SDS011;7593;49.006;8.372;2022-07-18T00:43:26;3.00;;;1.70;;
14994;SDS011;7593;49.006;8.372;2022-07-18T00:45:53;4.82;;;1.90;;
14994;SDS011;7593;49.006;8.372;2022-07-18T00:48:20;4.53;;;2.00;;
14994;SDS011;7593;49.006;8.372;2022-07-18T00:50:48;4.00;;;1.92;;
14994;SDS011;7593;49.006;8.372;2022-07-18T00:53:16;3.33;;;1.70;;
14994;SDS011;7593;49.006;8.372;2022-07-18T00:55:43;3.13;;;2.08;;
14994;SDS011;7593;49.006;8.372;2022-07-18T00:58:11;3.90;;;2.05;;
14994;SDS011;7593;49.006;8.372;2022-07-18T01:00:39;3.97;;;2.10;;
14994;SDS011;7593;49.006;8.372;2022-07-18T01:03:24;3.03;;;1.90;;
14994;SDS011;7593;49.006;8.372;2022-07-18T01:05:52;5.38;;;2.20;;
14994;SDS011;7593;49.006;8.372;2022-07-18T01:08:20;2.15;;;1.90;;
14994;SDS011;7593;49.006;8.372;2022-07-18T01:10:47;4.35;;;1.90;;
14994;SDS011;7593;49.006;8.372;2022-07-18T01:13:15;2.20;;;1.73;;
14994;SDS011;7593;49.006;8.372;2022-07-18T01:15:42;2.17;;;1.70;;
14994;SDS011;7593;49.006;8.372;2022-07-18T01:18:08;2.45;;;1.92;;
14994;SDS011;7593;49.006;8.372;2022-07-18T01:20:37;4.30;;;2.10;;
14994;SDS011;7593;49.006;8.372;2022-07-18T01:23:04;2.83;;;1.90;;
14994;SDS011;7593;49.006;8.372;2022-07-18T01:25:31;2.05;;;1.80;;
14994;SDS011;7593;49.006;8.372;2022-07-18T01:27:58;3.83;;;1.92;;
14994;SDS011;7593;49.006;8.372;2022-07-18T01:30:25;3.80;;;2.00;;
14994;SDS011;7593;49.006;8.372;2022-07-18T01:32:56;4.00;;;1.90;;
14994;SDS011;7593;49.006;8.372;2022-07-18T01:35:23;2.63;;;1.92;;
14994;SDS011;7593;49.006;8.372;2022-07-18T01:37:52;4.75;;;2.22;;
14994;SDS011;7593;49.006;8.372;2022-07-18T01:40:21;3.80;;;1.88;;
14994;SDS011;7593;49.006;8.372;2022-07-18T01:42:48;3.53;;;2.15;;
14994;SDS011;7593;49.006;8.372;2022-07-18T01:45:15;3.97;;;1.98;;
14994;SDS011;7593;49.006;8.372;2022-07-18T01:47:42;2.78;;;1.88;;
14994;SDS011;7593;49.006;8.372;2022-07-18T01:50:09;3.55;;;2.00;;
14994;SDS011;7593;49.006;8.372;2022-07-18T01:52:37;2.60;;;1.90;;
14994;SDS011;7593;49.006;8.372;2022-07-18T01:55:07;2.42;;;1.88;;
14994;SDS011;7593;49.006;8.372;2022-07-18T01:57:35;2.88;;;1.73;;
14994;SDS011;7593;49.006;8.372;2022-07-18T02:00:03;2.55;;;1.80;;
14994;SDS011;7593;49.006;8.372;2022-07-18T02:02:30;2.88;;;2.10;;
14994;SDS011;7593;49.006;8.372;2022-07-18T02:04:57;1.70;;;1.60;;
14994;SDS011;7593;49.006;8.372;2022-07-18T02:07:28;2.92;;;2.10;;
14994;SDS011;7593;49.006;8.372;2022-07-18T02:09:57;2.47;;;2.05;;
14994;SDS011;7593;49.006;8.372;2022-07-18T02:12:26;2.40;;;1.90;;
14994;SDS011;7593;49.006;8.372;2022-07-18T02:14:53;3.67;;;2.15;;
14994;SDS011;7593;49.006;8.372;2022-07-18T02:17:20;3.80;;;2.13;;
14994;SDS011;7593;49.006;8.372;2022-07-18T02:19:47;2.58;;;2.00;;
14994;SDS011;7593;49.006;8.372;2022-07-18T02:22:13;3.22;;;2.30;;
14994;SDS011;7593;49.006;8.372;2022-07-18T02:24:40;3.20;;;2.10;;
14994;SDS011;7593;49.006;8.372;2022-07-18T02:27:07;3.63;;;2.00;;
14994;SDS011;7593;49.006;8.372;2022-07-18T02:29:36;2.97;;;2.00;;
14994;SDS011;7593;49.006;8.372;2022-07-18T02:32:03;2.95;;;2.05;;
14994;SDS011;7593;49.006;8.372;2022-07-18T02:34:30;3.72;;;1.92;;
14994;SDS011;7593;49.006;8.372;2022-07-18T02:36:57;3.17;;;2.20;;
14994;SDS011;7593;49.006;8.372;2022-07-18T02:39:24;2.92;;;1.90;;
14994;SDS011;7593;49.006;8.372;2022-07-18T02:41:52;2.83;;;2.15;;
14994;SDS011;7593;49.006;8.372;2022-07-18T02:44:19;3.60;;;2.15;;
14994;SDS011;7593;49.006;8.372;2022-07-18T02:46:47;2.33;;;1.80;;
14994;SDS011;7593;49.006;8.372;2022-07-18T02:49:14;3.78;;;2.00;;
14994;SDS011;7593;49.006;8.372;2022-07-18T02:51:53;4.03;;;2.05;;
14994;SDS011;7593;49.006;8.372;2022-07-18T02:54:20;3.97;;;1.95;;
14994;SDS011;7593;49.006;8.372;2022-07-18T02:56:48;2.42;;;1.83;;
14994;SDS011;7593;49.006;8.372;2022-07-18T02:59:15;3.45;;;1.90;;
14994;SDS011;7593;49.006;8.372;2022-07-18T03:01:42;3.00;;;2.10;;
14994;SDS011;7593;49.006;8.372;2022-07-18T03:04:10;3.28;;;1.90;;
14994;SDS011;7593;49.006;8.372;2022-07-18T03:06:37;3.80;;;2.30;;
14994;SDS011;7593;49.006;8.372;2022-07-18T03:09:04;2.72;;;1.90;;
14994;SDS011;7593;49.006;8.372;2022-07-18T03:11:31;1.88;;;1.70;;
14994;SDS011;7593;49.006;8.372;2022-07-18T03:13:57;2.65;;;1.98;;
14994;SDS011;7593;49.006;8.372;2022-07-18T03:16:24;3.38;;;1.80;;
14994;SDS011;7593;49.006;8.372;2022-07-18T03:18:51;4.88;;;2.03;;
14994;SDS011;7593;49.006;8.372;2022-07-18T03:21:20;2.63;;;2.17;;
14994;SDS011;7593;49.006;8.372;2022-07-18T03:23:47;3.53;;;1.90;;
14994;SDS011;7593;49.006;8.372;2022-07-18T03:26:14;6.72;;;2.25;;
14994;SDS011;7593;49.006;8.372;2022-07-18T03:28:40;2.38;;;1.88;;
14994;SDS011;7593;49.006;8.372;2022-07-18T03:31:07;4.32;;;2.30;;
14994;SDS011;7593;49.006;8.372;2022-07-18T03:33:34;3.00;;;1.88;;
14994;SDS011;7593;49.006;8.372;2022-07-18T03:36:01;4.13;;;2.15;;
14994;SDS011;7593;49.006;8.372;2022-07-18T03:38:29;2.75;;;2.08;;
14994;SDS011;7593;49.006;8.372;2022-07-18T03:40:56;3.80;;;2.05;;
14994;SDS011;7593;49.006;8.372;2022-07-18T03:43:24;2.83;;;1.92;;
14994;SDS011;7593;49.006;8.372;2022-07-18T03:45:50;2.38;;;2.10;;
14994;SDS011;7593;49.006;8.372;2022-07-18T03:48:17;3.33;;;1.90;;
14994;SDS011;7593;49.006;8.372;2022-07-18T03:50:44;4.50;;;2.10;;
14994;SDS011;7593;49.006;8.372;2022-07-18T03:53:11;4.57;;;2.08;;
14994;SDS011;7593;49.006;8.372;2022-07-18T03:55:39;5.03;;;2.17;;
14994;SDS011;7593;49.006;8.372;2022-07-18T03:58:06;2.92;;;2.15;;
14994;SDS011;7593;49.006;8.372;2022-07-18T04:00:32;4.95;;;2.10;;
14994;SDS011;7593;49.006;8.372;2022-07-18T04:02:59;3.38;;;2.05;;
14994;SDS011;7593;49.006;8.372;2022-07-18T04:05:26;3.58;;;2.17;;
14994;SDS011;7593;49.006;8.372;2022-07-18T04:07:53;3.15;;;1.77;;
14994;SDS011;7593;49.006;8.372;2022-07-18T04:10:20;2.53;;;1.77;;
14994;SDS011;7593;49.006;8.372;2022-07-18T04:12:49;2.45;;;2.03;;
14994;SDS011;7593;49.006;8.372;2022-07-18T04:15:17;6.68;;;2.22;;
14994;SDS011;7593;49.006;8.372;2022-07-18T04:17:45;3.60;;;2.10;;
14994;SDS011;7593;49.006;8.372;2022-07-18T04:20:12;3.65;;;2.10;;
14994;SDS011;7593;49.006;8.372;2022-07-18T04:22:43;5.20;;;2.38;;
14994;SDS011;7593;49.006;8.372;2022-07-18T04:25:15;5.15;;;2.22;;
14994;SDS011;7593;49.006;8.372;2022-07-18T04:27:43;4.35;;;2.05;;
14994;SDS011;7593;49.006;8.372;2022-07-18T04:30:12;3.45;;;2.33;;
14994;SDS011;7593;49.006;8.372;2022-07-18T04:32:39;4.60;;;2.10;;
14994;SDS011;7593;49.006;8.372;2022-07-18T04:35:07;2.63;;;2.10;;
14994;SDS011;7593;49.006;8.372;2022-07-18T04:37:34;3.05;;;2.03;;
14994;SDS011;7593;49.006;8.372;2022-07-18T04:40:01;2.13;;;1.90;;
14994;SDS011;7593;49.006;8.372;2022-07-18T04:42:28;5.07;;;2.15;;
14994;SDS011;7593;49.006;8.372;2022-07-18T04:44:56;5.60;;;2.15;;
14994;SDS011;7593;49.006;8.372;2022-07-18T04:47:25;7.63;;;2.00;;
14994;SDS011;7593;49.006;8.372;2022-07-18T04:49:52;3.30;;;1.90;;
14994;SDS011;7593;49.006;8.372;2022-07-18T04:52:19;3.85;;;2.20;;
14994;SDS011;7593;49.006;8.372;2022-07-18T04:54:46;5.20;;;2.28;;
14994;SDS011;7593;49.006;8.372;2022-07-18T04:57:13;2.92;;;1.92;;
14994;SDS011;7593;49.006;8.372;2022-07-18T04:59:40;2.72;;;1.73;;
14994;SDS011;7593;49.006;8.372;2022-07-18T05:02:07;3.83;;;2.10;;
14994;SDS011;7593;49.006;8.372;2022-07-18T05:04:36;4.97;;;2.40;;
14994;SDS011;7593;49.006;8.372;2022-07-18T05:07:04;5.13;;;2.30;;
14994;SDS011;7593;49.006;8.372;2022-07-18T05:09:32;3.35;;;2.20;;
14994;SDS011;7593;49.006;8.372;2022-07-18T05:11:58;7.90;;;2.35;;
14994;SDS011;7593;49.006;8.372;2022-07-18T05:14:25;4.60;;;2.40;;
14994;SDS011;7593;49.006;8.372;2022-07-18T05:16:52;8.25;;;2.45;;
14994;SDS011;7593;49.006;8.372;2022-07-18T05:19:19;8.55;;;2.70;;
14994;SDS011;7593;49.006;8.372;2022-07-18T05:21:48;4.35;;;2.47;;
14994;SDS011;7593;49.006;8.372;2022-07-18T05:24:14;5.95;;;2.33;;
14994;SDS011;7593;49.006;8.372;2022-07-18T05:26:41;3.25;;;2.22;;
14994;SDS011;7593;49.006;8.372;2022-07-18T05:29:09;8.23;;;2.42;;
14994;SDS011;7593;49.006;8.372;2022-07-18T05:31:37;9.40;;;2.65;;
14994;SDS011;7593;49.006;8.372;2022-07-18T05:34:04;3.10;;;2.13;;
14994;SDS011;7593;49.006;8.372;2022-07-18T05:36:31;5.22;;;2.20;;
14994;SDS011;7593;49.006;8.372;2022-07-18T05:39:00;9.77;;;2.28;;
14994;SDS011;7593;49.006;8.372;2022-07-18T05:41:26;5.82;;;2.63;;
14994;SDS011;7593;49.006;8.372;2022-07-18T05:43:53;11.27;;;3.20;;
14994;SDS011;7593;49.006;8.372;2022-07-18T05:46:20;3.95;;;2.00;;
14994;SDS011;7593;49.006;8.372;2022-07-18T05:48:47;7.50;;;2.25;;
14994;SDS011;7593;49.006;8.372;2022-07-18T05:51:14;7.43;;;2.67;;
14994;SDS011;7593;49.006;8.372;2022-07-18T05:53:41;6.47;;;2.28;;
14994;SDS011;7593;49.006;8.372;2022-07-18T05:56:10;5.28;;;2.17;;
14994;SDS011;7593;49.006;8.372;2022-07-18T05:58:36;3.75;;;2.10;;
14994;SDS011;7593;49.006;8.372;2022-07-18T06:01:03;6.07;;;2.15;;
14994;SDS011;7593;49.006;8.372;2022-07-18T06:03:31;7.93;;;2.45;;
14994;SDS011;7593;49.006;8.372;2022-07-18T06:05:58;5.60;;;2.60;;
14994;SDS011;7593;49.006;8.372;2022-07-18T06:08:25;5.93;;;2.40;;
14994;SDS011;7593;49.006;8.372;2022-07-18T06:10:52;9.10;;;2.53;;
14994;SDS011;7593;49.006;8.372;2022-07-18T06:13:20;4.25;;;1.92;;
14994;SDS011;7593;49.006;8.372;2022-07-18T06:15:47;2.45;;;2.10;;
14994;SDS011;7593;49.006;8.372;2022-07-18T06:18:14;3.63;;;2.40;;
14994;SDS011;7593;49.006;8.372;2022-07-18T06:20:41;5.35;;;2.08;;
14994;SDS011;7593;49.006;8.372;2022-07-18T06:23:08;4.38;;;2.08;;
14994;SDS011;7593;49.006;8.372;2022-07-18T06:25:34;6.38;;;1.90;;
14994;SDS011;7593;49.006;8.372;2022-07-18T06:28:01;7.80;;;2.60;;
14994;SDS011;7593;49.006;8.372;2022-07-18T06:30:30;7.28;;;2.10;;
14994;SDS011;7593;49.006;8.372;2022-07-18T06:32:57;5.03;;;2.00;;
14994;SDS011;7593;49.006;8.372;2022-07-18T06:35:24;5.32;;;2.05;;
14994;SDS011;7593;49.006;8.372;2022-07-18T06:37:51;8.77;;;2.15;;
14994;SDS011;7593;49.006;8.372;2022-07-18T06:40:18;7.18;;;2.10;;
14994;SDS011;7593;49.006;8.372;2022-07-18T06:42:45;7.68;;;1.95;;
14994;SDS011;7593;49.006;8.372;2022-07-18T06:45:12;4.95;;;2.00;;
14994;SDS011;7593;49.006;8.372;2022-07-18T06:47:41;6.00;;;2.78;;
14994;SDS011;7593;49.006;8.372;2022-07-18T06:50:08;5.90;;;2.30;;
14994;SDS011;7593;49.006;8.372;2022-07-18T06:52:36;6.18;;;2.28;;
14994;SDS011;7593;49.006;8.372;2022-07-18T06:55:05;5.97;;;2.10;;
14994;SDS011;7593;49.006;8.372;2022-07-18T06:57:32;6.03;;;2.47;;
14994;SDS011;7593;49.006;8.372;2022-07-18T06:59:59;7.53;;;2.35;;
14994;SDS011;7593;49.006;8.372;2022-07-18T07:02:26;7.85;;;2.20;;
14994;SDS011;7593;49.006;8.372;2022-07-18T07:04:54;5.72;;;1.88;;
14994;SDS011;7593;49.006;8.372;2022-07-18T07:07:21;5.57;;;1.77;;
14994;SDS011;7593;49.006;8.372;2022-07-18T07:09:48;10.18;;;1.80;;
14994;SDS011;7593;49.006;8.372;2022-07-18T07:12:15;6.10;;;1.80;;
14994;SDS011;7593;49.006;8.372;2022-07-18T07:14:42;17.67;;;2.70;;
14994;SDS011;7593;49.006;8.372;2022-07-18T07:17:08;3.80;;;1.85;;
14994;SDS011;7593;49.006;8.372;2022-07-18T07:19:37;5.95;;;2.05;;
14994;SDS011;7593;49.006;8.372;2022-07-18T07:22:05;8.40;;;1.63;;
14994;SDS011;7593;49.006;8.372;2022-07-18T07:24:32;5.47;;;1.80;;
14994;SDS011;7593;49.006;8.372;2022-07-18T07:26:59;3.55;;;1.67;;
14994;SDS011;7593;49.006;8.372;2022-07-18T07:29:26;3.00;;;1.88;;
14994;SDS011;7593;49.006;8.372;2022-07-18T07:31:53;4.05;;;1.52;;
14994;SDS011;7593;49.006;8.372;2022-07-18T07:34:20;3.72;;;1.85;;
14994;SDS011;7593;49.006;8.372;2022-07-18T07:36:47;3.22;;;1.77;;
14994;SDS011;7593;49.006;8.372;2022-07-18T07:39:15;5.35;;;1.70;;
14994;SDS011;7593;49.006;8.372;2022-07-18T07:41:42;9.23;;;1.70;;
14994;SDS011;7593;49.006;8.372;2022-07-18T07:44:09;6.40;;;1.70;;
14994;SDS011;7593;49.006;8.372;2022-07-18T07:46:36;3.95;;;1.75;;
14994;SDS011;7593;49.006;8.372;2022-07-18T07:49:06;4.38;;;1.70;;
14994;SDS011;7593;49.006;8.372;2022-07-18T07:51:33;4.75;;;1.52;;
14994;SDS011;7593;49.006;8.372;2022-07-18T07:53:59;5.05;;;2.05;;
14994;SDS011;7593;49.006;8.372;2022-07-18T07:56:28;5.68;;;1.60;;
14994;SDS011;7593;49.006;8.372;2022-07-18T07:58:55;5.13;;;1.60;;
14994;SDS011;7593;49.006;8.372;2022-07-18T08:01:21;7.38;;;1.98;;
14994;SDS011;7593;49.006;8.372;2022-07-18T08:03:48;3.78;;;1.60;;
14994;SDS011;7593;49.006;8.372;2022-07-18T08:06:15;6.00;;;1.70;;
14994;SDS011;7593;49.006;8.372;2022-07-18T08:08:42;7.50;;;1.65;;
14994;SDS011;7593;49.006;8.372;2022-07-18T08:11:09;6.88;;;2.00;;
14994;SDS011;7593;49.006;8.372;2022-07-18T08:13:37;6.97;;;1.90;;
14994;SDS011;7593;49.006;8.372;2022-07-18T08:16:04;6.30;;;1.80;;
14994;SDS011;7593;49.006;8.372;2022-07-18T08:18:31;3.92;;;1.80;;
14994;SDS011;7593;49.006;8.372;2022-07-18T08:20:58;6.18;;;1.55;;
14994;SDS011;7593;49.006;8.372;2022-07-18T08:23:24;6.13;;;1.75;;
14994;SDS011;7593;49.006;8.372;2022-07-18T08:25:51;3.42;;;1.48;;
14994;SDS011;7593;49.006;8.372;2022-07-18T08:28:18;2.78;;;1.50;;
14994;SDS011;7593;49.006;8.372;2022-07-18T08:30:46;3.05;;;1.50;;
14994;SDS011;7593;49.006;8.372;2022-07-18T08:33:13;5.03;;;1.70;;
14994;SDS011;7593;49.006;8.372;2022-07-18T08:35:40;4.40;;;1.42;;
14994;SDS011;7593;49.006;8.372;2022-07-18T08:38:07;2.40;;;1.50;;
14994;SDS011;7593;49.006;8.372;2022-07-18T08:40:34;4.45;;;1.83;;
14994;SDS011;7593;49.006;8.372;2022-07-18T08:43:03;3.72;;;1.27;;
14994;SDS011;7593;49.006;8.372;2022-07-18T08:45:30;6.15;;;1.50;;
14994;SDS011;7593;49.006;8.372;2022-07-18T08:47:58;4.82;;;1.60;;
14994;SDS011;7593;49.006;8.372;2022-07-18T08:50:25;6.20;;;1.95;;
14994;SDS011;7593;49.006;8.372;2022-07-18T08:52:53;4.70;;;1.48;;
14994;SDS011;7593;49.006;8.372;2022-07-18T08:55:21;5.03;;;1.70;;
14994;SDS011;7593;49.006;8.372;2022-07-18T08:57:48;8.05;;;1.63;;
14994;SDS011;7593;49.006;8.372;2022-07-18T09:00:15;10.43;;;2.65;;
14994;SDS011;7593;49.006;8.372;2022-07-18T09:02:43;6.68;;;1.50;;
14994;SDS011;7593;49.006;8.372;2022-07-18T09:05:18;6.32;;;1.80;;
14994;SDS011;7593;49.006;8.372;2022-07-18T09:07:46;4.82;;;1.38;;
14994;SDS011;7593;49.006;8.372;2022-07-18T09:10:13;2.60;;;1.40;;
14994;SDS011;7593;49.006;8.372;2022-07-18T09:12:41;2.35;;;1.40;;
14994;SDS011;7593;49.006;8.372;2022-07-18T09:15:21;3.95;;;1.60;;
14994;SDS011;7593;49.006;8.372;2022-07-18T09:17:49;4.28;;;1.58;;
14994;SDS011;7593;49.006;8.372;2022-07-18T09:20:17;6.75;;;1.73;;
14994;SDS011;7593;49.006;8.372;2022-07-18T09:22:45;3.60;;;1.58;;
14994;SDS011;7593;49.006;8.372;2022-07-18T09:25:14;2.42;;;1.40;;
14994;SDS011;7593;49.006;8.372;2022-07-18T09:27:42;2.60;;;1.30;;
14994;SDS011;7593;49.006;8.372;2022-07-18T09:30:15;4.03;;;1.27;;
14994;SDS011;7593;49.006;8.372;2022-07-18T09:32:44;6.88;;;1.60;;
14994;SDS011;7593;49.006;8.372;2022-07-18T09:35:18;2.90;;;1.60;;
14994;SDS011;7593;49.006;8.372;2022-07-18T09:37:54;3.95;;;1.40;;
14994;SDS011;7593;49.006;8.372;2022-07-18T09:40:25;5.30;;;1.60;;
14994;SDS011;7593;49.006;8.372;2022-07-18T09:42:54;2.53;;;1.45;;
14994;SDS011;7593;49.006;8.372;2022-07-18T09:45:22;3.13;;;1.40;;
14994;SDS011;7593;49.006;8.372;2022-07-18T09:47:51;4.45;;;1.40;;
14994;SDS011;7593;49.006;8.372;2022-07-18T09:50:25;8.73;;;2.58;;
14994;SDS011;7593;49.006;8.372;2022-07-18T09:53:07;5.50;;;1.67;;
14994;SDS011;7593;49.006;8.372;2022-07-18T09:55:36;5.22;;;1.65;;
14994;SDS011;7593;49.006;8.372;2022-07-18T09:58:08;3.00;;;1.33;;
14994;SDS011;7593;49.006;8.372;2022-07-18T10:00:36;3.90;;;1.70;;
14994;SDS011;7593;49.006;8.372;2022-07-18T10:03:05;4.97;;;1.70;;
14994;SDS011;7593;49.006;8.372;2022-07-18T10:05:34;4.50;;;2.15;;
14994;SDS011;7593;49.006;8.372;2022-07-18T10:08:04;6.35;;;1.50;;
14994;SDS011;7593;49.006;8.372;2022-07-18T10:10:32;2.15;;;1.33;;
14994;SDS011;7593;49.006;8.372;2022-07-18T10:13:00;3.33;;;1.27;;
14994;SDS011;7593;49.006;8.372;2022-07-18T10:15:29;5.68;;;1.60;;
14994;SDS011;7593;49.006;8.372;2022-07-18T10:17:58;5.18;;;1.40;;
14994;SDS011;7593;49.006;8.372;2022-07-18T10:20:27;4.75;;;1.40;;
14994;SDS011;7593;49.006;8.372;2022-07-18T10:22:59;5.55;;;1.50;;
14994;SDS011;7593;49.006;8.372;2022-07-18T10:25:34;4.43;;;1.50;;
14994;SDS011;7593;49.006;8.372;2022-07-18T10:28:06;1.75;;;1.35;;
14994;SDS011;7593;49.006;8.372;2022-07-18T10:30:36;3.90;;;1.30;;
14994;SDS011;7593;49.006;8.372;2022-07-18T10:33:25;5.10;;;1.70;;
14994;SDS011;7593;49.006;8.372;2022-07-18T10:36:11;2.53;;;1.10;;
14994;SDS011;7593;49.006;8.372;2022-07-18T10:41:34;2.85;;;1.30;;
14994;SDS011;7593;49.006;8.372;2022-07-18T10:44:40;2.38;;;1.40;;
14994;SDS011;7593;49.006;8.372;2022-07-18T10:47:08;2.83;;;1.27;;
14994;SDS011;7593;49.006;8.372;2022-07-18T10:50:02;2.53;;;1.17;;
14994;SDS011;7593;49.006;8.372;2022-07-18T10:55:31;2.35;;;1.40;;
14994;SDS011;7593;49.006;8.372;2022-07-18T10:58:14;7.78;;;1.70;;
14994;SDS011;7593;49.006;8.372;2022-07-18T11:00:43;3.47;;;1.42;;
14994;SDS011;7593;49.006;8.372;2022-07-18T11:03:15;9.85;;;3.08;;
14994;SDS011;7593;49.006;8.372;2022-07-18T11:05:44;4.30;;;1.25;;
14994;SDS011;7593;49.006;8.372;2022-07-18T11:08:16;2.25;;;1.30;;
14994;SDS011;7593;49.006;8.372;2022-07-18T11:13:35;7.55;;;1.60;;
14994;SDS011;7593;49.006;8.372;2022-07-18T11:16:10;4.03;;;1.40;;
14994;SDS011;7593;49.006;8.372;2022-07-18T11:21:44;1.48;;;1.10;;
14994;SDS011;7593;49.006;8.372;2022-07-18T11:24:12;2.63;;;1.13;;
14994;SDS011;7593;49.006;8.372;2022-07-18T11:26:45;2.47;;;1.13;;
14994;SDS011;7593;49.006;8.372;2022-07-18T11:29:14;2.50;;;1.00;;
14994;SDS011;7593;49.006;8.372;2022-07-18T11:31:43;3.55;;;1.10;;
14994;SDS011;7593;49.006;8.372;2022-07-18T11:34:14;5.65;;;1.30;;
14994;SDS011;7593;49.006;8.372;2022-07-18T11:36:42;3.67;;;1.40;;
14994;SDS011;7593;49.006;8.372;2022-07-18T11:39:10;1.85;;;1.30;;
14994;SDS011;7593;49.006;8.372;2022-07-18T11:41:37;2.33;;;1.20;;
14994;SDS011;7593;49.006;8.372;2022-07-18T11:44:11;3.75;;;1.40;;
14994;SDS011;7593;49.006;8.372;2022-07-18T11:46:43;3.63;;;1.05;;
14994;SDS011;7593;49.006;8.372;2022-07-18T11:49:10;2.05;;;1.20;;
14994;SDS011;7593;49.006;8.372;2022-07-18T11:51:38;2.03;;;1.23;;
14994;SDS011;7593;49.006;8.372;2022-07-18T11:54:09;5.32;;;1.20;;
14994;SDS011;7593;49.006;8.372;2022-07-18T11:56:44;3.42;;;1.20;;
14994;SDS011;7593;49.006;8.372;2022-07-18T11:59:15;4.10;;;1.38;;
14994;SDS011;7593;49.006;8.372;2022-07-18T12:01:42;4.30;;;1.20;;
14994;SDS011;7593;49.006;8.372;2022-07-18T12:04:14;2.45;;;1.25;;
14994;SDS011;7593;49.006;8.372;2022-07-18T12:06:44;2.65;;;1.27;;
14994;SDS011;7593;49.006;8.372;2022-07-18T12:09:11;2.03;;;1.10;;
14994;SDS011;7593;49.006;8.372;2022-07-18T12:11:38;4.53;;;1.02;;
14994;SDS011;7593;49.006;8.372;2022-07-18T12:14:13;4.72;;;1.08;;
14994;SDS011;7593;49.006;8.372;2022-07-18T12:16:42;3.90;;;1.20;;
14994;SDS011;7593;49.006;8.372;2022-07-18T12:19:32;2.90;;;1.50;;
14994;SDS011;7593;49.006;8.372;2022-07-18T12:22:04;2.25;;;1.00;;
14994;SDS011;7593;49.006;8.372;2022-07-18T12:24:34;3.20;;;1.15;;
14994;SDS011;7593;49.006;8.372;2022-07-18T12:27:10;3.67;;;1.17;;
14994;SDS011;7593;49.006;8.372;2022-07-18T12:29:56;2.53;;;1.13;;
14994;SDS011;7593;49.006;8.372;2022-07-18T12:32:27;5.70;;;1.10;;
14994;SDS011;7593;49.006;8.372;2022-07-18T12:34:56;2.17;;;1.13;;
14994;SDS011;7593;49.006;8.372;2022-07-18T12:37:23;1.73;;;1.20;;
14994;SDS011;7593;49.006;8.372;2022-07-18T12:39:55;3.45;;;1.30;;
14994;SDS011;7593;49.006;8.372;2022-07-18T12:42:32;5.63;;;1.20;;
14994;SDS011;7593;49.006;8.372;2022-07-18T12:45:02;2.35;;;1.10;;
14994;SDS011;7593;49.006;8.372;2022-07-18T12:47:30;4.03;;;1.25;;
14994;SDS011;7593;49.006;8.372;2022-07-18T12:49:58;3.63;;;1.30;;
14994;SDS011;7593;49.006;8.372;2022-07-18T12:52:24;2.47;;;1.10;;
14994;SDS011;7593;49.006;8.372;2022-07-18T12:54:52;2.63;;;1.25;;
14994;SDS011;7593;49.006;8.372;2022-07-18T12:57:19;5.13;;;1.20;;
14994;SDS011;7593;49.006;8.372;2022-07-18T12:59:47;4.00;;;1.20;;
14994;SDS011;7593;49.006;8.372;2022-07-18T13:02:16;2.33;;;1.10;;
14994;SDS011;7593;49.006;8.372;2022-07-18T13:04:43;6.28;;;1.13;;
14994;SDS011;7593;49.006;8.372;2022-07-18T13:07:11;3.15;;;1.30;;
14994;SDS011;7593;49.006;8.372;2022-07-18T13:09:38;2.80;;;1.15;;
14994;SDS011;7593;49.006;8.372;2022-07-18T13:12:05;3.45;;;1.20;;
14994;SDS011;7593;49.006;8.372;2022-07-18T13:14:32;3.00;;;1.40;;
14994;SDS011;7593;49.006;8.372;2022-07-18T13:16:59;1.88;;;1.30;;
14994;SDS011;7593;49.006;8.372;2022-07-18T13:19:27;1.40;;;0.80;;
14994;SDS011;7593;49.006;8.372;2022-07-18T13:21:56;1.65;;;1.10;;
14994;SDS011;7593;49.006;8.372;2022-07-18T13:24:26;2.97;;;1.10;;
14994;SDS011;7593;49.006;8.372;2022-07-18T13:26:53;4.13;;;1.40;;
14994;SDS011;7593;49.006;8.372;2022-07-18T13:29:20;2.65;;;1.08;;
14994;SDS011;7593;49.006;8.372;2022-07-18T13:31:48;4.93;;;1.20;;
14994;SDS011;7593;49.006;8.372;2022-07-18T13:34:16;2.13;;;1.20;;
14994;SDS011;7593;49.006;8.372;2022-07-18T13:36:48;3.22;;;1.20;;
14994;SDS011;7593;49.006;8.372;2022-07-18T13:39:16;4.38;;;1.20;;
14994;SDS011;7593;49.006;8.372;2022-07-18T13:41:43;2.67;;;1.10;;
14994;SDS011;7593;49.006;8.372;2022-07-18T13:44:10;1.67;;;1.10;;
14994;SDS011;7593;49.006;8.372;2022-07-18T13:46:37;1.05;;;0.95;;
14994;SDS011;7593;49.006;8.372;2022-07-18T13:49:05;2.92;;;1.10;;
14994;SDS011;7593;49.006;8.372;2022-07-18T13:51:32;4.25;;;1.15;;
14994;SDS011;7593;49.006;8.372;2022-07-18T13:54:00;2.75;;;1.20;;
14994;SDS011;7593;49.006;8.372;2022-07-18T13:56:29;1.92;;;1.10;;
14994;SDS011;7593;49.006;8.372;2022-07-18T13:58:56;1.70;;;1.20;;
14994;SDS011;7593;49.006;8.372;2022-07-18T14:01:23;1.88;;;1.10;;
14994;SDS011;7593;49.006;8.372;2022-07-18T14:03:50;3.20;;;1.10;;
14994;SDS011;7593;49.006;8.372;2022-07-18T14:06:17;3.22;;;1.10;;
14994;SDS011;7593;49.006;8.372;2022-07-18T14:08:44;2.22;;;1.00;;
14994;SDS011;7593;49.006;8.372;2022-07-18T14:11:12;1.58;;;1.15;;
14994;SDS011;7593;49.006;8.372;2022-07-18T14:13:39;1.85;;;1.17;;
14994;SDS011;7593;49.006;8.372;2022-07-18T14:16:06;1.77;;;1.13;;
14994;SDS011;7593;49.006;8.372;2022-07-18T14:18:33;6.20;;;1.70;;
14994;SDS011;7593;49.006;8.372;2022-07-18T14:21:00;1.50;;;1.00;;
14994;SDS011;7593;49.006;8.372;2022-07-18T14:23:27;6.22;;;1.52;;
14994;SDS011;7593;49.006;8.372;2022-07-18T14:25:54;4.00;;;1.27;;
14994;SDS011;7593;49.006;8.372;2022-07-18T14:28:22;4.03;;;1.38;;
14994;SDS011;7593;49.006;8.372;2022-07-18T14:30:49;3.53;;;1.30;;
14994;SDS011;7593;49.006;8.372;2022-07-18T14:33:16;2.17;;;1.20;;
14994;SDS011;7593;49.006;8.372;2022-07-18T14:35:43;2.78;;;1.10;;
14994;SDS011;7593;49.006;8.372;2022-07-18T14:38:09;2.60;;;2.40;;
14994;SDS011;7593;49.006;8.372;2022-07-18T14:40:36;2.00;;;1.25;;
14994;SDS011;7593;49.006;8.372;2022-07-18T14:43:06;2.90;;;1.10;;
14994;SDS011;7593;49.006;8.372;2022-07-18T14:45:34;2.22;;;1.13;;
14994;SDS011;7593;49.006;8.372;2022-07-18T14:48:01;2.45;;;1.15;;
14994;SDS011;7593;49.006;8.372;2022-07-18T14:50:28;4.43;;;1.20;;
14994;SDS011;7593;49.006;8.372;2022-07-18T14:52:55;1.92;;;1.40;;
14994;SDS011;7593;49.006;8.372;2022-07-18T14:55:22;1.92;;;1.10;;
14994;SDS011;7593;49.006;8.372;2022-07-18T14:57:49;3.25;;;1.20;;
14994;SDS011;7593;49.006;8.372;2022-07-18T15:00:15;4.40;;;1.27;;
14994;SDS011;7593;49.006;8.372;2022-07-18T15:02:44;3.08;;;1.10;;
14994;SDS011;7593;49.006;8.372;2022-07-18T15:05:11;4.55;;;1.58;;
14994;SDS011;7593;49.006;8.372;2022-07-18T15:07:37;3.78;;;1.17;;
14994;SDS011;7593;49.006;8.372;2022-07-18T15:10:05;2.08;;;1.38;;
14994;SDS011;7593;49.006;8.372;2022-07-18T15:12:33;2.80;;;1.20;;
14994;SDS011;7593;49.006;8.372;2022-07-18T15:15:00;4.60;;;1.38;;
14994;SDS011;7593;49.006;8.372;2022-07-18T15:17:27;2.47;;;1.10;;
14994;SDS011;7593;49.006;8.372;2022-07-18T15:19:55;3.28;;;1.30;;